KCGE

Cambridge-Dorchester Regional Airport

Cambridge, Maryland, USA
METAR KCGE 212250Z AUTO 14007KT 10SM SCT019 BKN029 BKN042 26/24 A2988 RMK A01
Observed Flight Rules
Aug-21 @ 22:50 UTC (57 minutes ago) Marginal Visual Flight Rules
Wind Visibility Clouds
140° at 7 knots 10 miles
  • Scattered at 1,900' AGL
  • Broken at 2,900' AGL
  • Broken at 4,200' AGL
Temperatures Readings
Current 26°C / 79°F
Dewpoint 24°C / 75°F
Humidity 89%
Altimeter 29.88" Hg
Pressure 1012 hPa
Elevation 6
METAR KCGE 212250Z AUTO 14007KT 10SM SCT019 BKN029 BKN042 26/24 A2988 RMK A01
Observed Flight Rules
Aug-21 @ 22:50 UTC
(57 minutes ago)
MVFR
Wind Visibility
140° at 7 knots 10 miles
Clouds
  • Scattered at 1,900' AGL
  • Broken at 2,900' AGL
  • Broken at 4,200' AGL
Temperature Dewpoint
26°C / 79°F 24°C / 75°F
Humidity Altimeter Pressure
89% 29.88" Hg 1012 hPa